createdAt,value
2018-08-17T00:00:01.637Z,15.90
2018-08-17T00:02:29.800Z,15.90
2018-08-17T00:04:57.982Z,15.90
2018-08-17T00:07:26.157Z,15.80
2018-08-17T00:09:54.307Z,15.80
2018-08-17T00:12:22.470Z,15.80
2018-08-17T00:14:50.647Z,15.70
2018-08-17T00:17:18.811Z,15.70
2018-08-17T00:19:47.000Z,15.70
2018-08-17T00:22:15.633Z,15.70
2018-08-17T00:24:43.803Z,15.60
2018-08-17T00:27:12.038Z,15.60
2018-08-17T00:29:40.561Z,15.50
2018-08-17T00:32:08.745Z,15.50
2018-08-17T00:34:36.913Z,15.50
2018-08-17T00:37:05.099Z,15.40
2018-08-17T00:39:33.247Z,15.40
2018-08-17T00:42:01.452Z,15.40
2018-08-17T00:44:29.652Z,15.40
2018-08-17T00:46:57.839Z,15.30
2018-08-17T00:49:26.008Z,15.30
2018-08-17T00:51:54.419Z,15.20
2018-08-17T00:54:22.576Z,15.20
2018-08-17T00:56:50.755Z,15.20
2018-08-17T00:59:19.232Z,15.20
2018-08-17T01:01:47.392Z,15.10
2018-08-17T01:04:15.580Z,15.10
2018-08-17T01:06:43.764Z,15.10
2018-08-17T01:09:11.935Z,15.10
2018-08-17T01:11:40.112Z,15.00
2018-08-17T01:14:08.292Z,15.00
2018-08-17T01:16:36.527Z,15.00
2018-08-17T01:19:04.724Z,15.00
2018-08-17T01:21:32.894Z,15.00
2018-08-17T01:24:01.605Z,14.90
2018-08-17T01:26:29.785Z,14.90
2018-08-17T01:28:57.972Z,14.90
2018-08-17T01:31:26.148Z,14.80
2018-08-17T01:33:54.321Z,14.80
2018-08-17T01:36:22.510Z,14.80
2018-08-17T01:38:50.719Z,14.80
2018-08-17T01:41:20.052Z,14.70
2018-08-17T01:43:48.206Z,14.70
2018-08-17T01:46:16.469Z,14.60
2018-08-17T01:48:44.643Z,14.60
2018-08-17T01:51:13.197Z,14.50
2018-08-17T01:53:41.351Z,14.50
2018-08-17T01:56:09.525Z,14.40
2018-08-17T01:58:37.747Z,14.40
2018-08-17T02:01:05.915Z,14.30
2018-08-17T02:03:34.071Z,14.30
2018-08-17T02:06:02.237Z,14.30
2018-08-17T02:08:30.404Z,14.20
2018-08-17T02:10:58.588Z,14.20
2018-08-17T02:13:27.039Z,14.20
2018-08-17T02:15:55.201Z,14.20
2018-08-17T02:18:23.360Z,14.20
2018-08-17T02:20:51.521Z,14.20
2018-08-17T02:23:19.696Z,14.20
2018-08-17T02:25:47.879Z,14.20
2018-08-17T02:28:16.043Z,14.20
2018-08-17T02:30:44.210Z,14.10
2018-08-17T02:33:12.380Z,14.10
2018-08-17T02:35:40.528Z,14.10
2018-08-17T02:38:08.701Z,14.10
2018-08-17T02:40:36.865Z,14.10
2018-08-17T02:43:05.057Z,14.10
2018-08-17T02:45:33.320Z,14.10
2018-08-17T02:48:01.479Z,14.10
2018-08-17T02:50:29.659Z,14.10
2018-08-17T02:52:57.844Z,14.10
2018-08-17T02:55:25.998Z,14.10
2018-08-17T02:57:54.176Z,14.00
2018-08-17T03:00:22.364Z,14.00
2018-08-17T03:02:50.529Z,14.00
2018-08-17T03:05:18.714Z,14.00
2018-08-17T03:07:46.935Z,14.00
2018-08-17T03:10:15.120Z,13.90
2018-08-17T03:12:43.304Z,13.90
2018-08-17T03:15:11.611Z,13.90
2018-08-17T03:17:39.777Z,13.90
2018-08-17T03:20:08.073Z,13.90
2018-08-17T03:22:36.265Z,13.80
2018-08-17T03:25:04.426Z,13.80
2018-08-17T03:27:32.595Z,13.80
2018-08-17T03:30:00.755Z,13.80
2018-08-17T03:32:29.011Z,13.80
2018-08-17T03:34:57.183Z,13.80
2018-08-17T03:37:25.432Z,13.70
2018-08-17T03:39:53.615Z,13.70
2018-08-17T03:42:21.770Z,13.70
2018-08-17T03:44:49.935Z,13.70
2018-08-17T03:47:18.175Z,13.70
2018-08-17T03:49:46.335Z,13.70
2018-08-17T03:52:14.537Z,13.60
2018-08-17T03:54:42.707Z,13.70
2018-08-17T03:57:10.880Z,13.60
2018-08-17T03:59:39.125Z,13.60
2018-08-17T04:02:07.728Z,13.60
2018-08-17T04:04:36.142Z,13.60
2018-08-17T04:07:04.355Z,13.60
2018-08-17T04:09:32.579Z,13.50
2018-08-17T04:12:00.763Z,13.50
2018-08-17T04:14:28.925Z,13.50
2018-08-17T04:16:57.115Z,13.40
2018-08-17T04:19:25.263Z,13.40
2018-08-17T04:21:53.434Z,13.40
2018-08-17T04:24:21.884Z,13.40
2018-08-17T04:26:50.043Z,13.40
2018-08-17T04:29:18.215Z,13.40
2018-08-17T04:31:46.400Z,13.50
2018-08-17T04:34:14.590Z,13.50
2018-08-17T04:36:42.769Z,13.50
2018-08-17T04:39:10.928Z,13.50
2018-08-17T04:41:39.408Z,13.50
2018-08-17T04:44:07.902Z,13.60
2018-08-17T04:46:36.055Z,13.60
2018-08-17T04:49:04.254Z,13.60
2018-08-17T04:51:32.487Z,13.70
2018-08-17T04:54:00.657Z,13.70
2018-08-17T04:56:28.816Z,13.70
2018-08-17T04:58:56.974Z,13.70
2018-08-17T05:01:25.147Z,13.70
2018-08-17T05:03:53.719Z,13.80
2018-08-17T05:06:21.902Z,13.80
2018-08-17T05:08:50.300Z,13.90
2018-08-17T05:11:19.655Z,13.90
2018-08-17T05:13:47.835Z,13.90
2018-08-17T05:16:16.053Z,14.00
2018-08-17T05:18:44.199Z,14.00
2018-08-17T05:21:12.419Z,14.10
2018-08-17T05:23:40.564Z,14.10
2018-08-17T05:26:08.811Z,14.20
2018-08-17T05:28:36.979Z,14.30
2018-08-17T05:31:05.998Z,14.40
2018-08-17T05:33:34.570Z,14.50
2018-08-17T05:36:02.882Z,14.60
2018-08-17T05:38:31.113Z,14.70
2018-08-17T05:40:59.294Z,14.90
2018-08-17T05:43:27.657Z,15.00
2018-08-17T05:45:55.932Z,15.10
2018-08-17T05:48:24.107Z,15.20
2018-08-17T05:50:52.607Z,15.40
2018-08-17T05:53:20.973Z,15.50
2018-08-17T05:58:23.863Z,15.70
2018-08-17T06:00:52.108Z,15.80
2018-08-17T06:03:20.341Z,15.90
2018-08-17T06:05:48.503Z,16.00
2018-08-17T06:08:16.731Z,16.10
2018-08-17T06:10:44.903Z,16.20
2018-08-17T06:13:13.190Z,16.20
2018-08-17T06:15:41.383Z,16.30
2018-08-17T06:18:09.540Z,16.40
2018-08-17T06:20:37.708Z,16.50
2018-08-17T06:23:05.976Z,16.60
2018-08-17T06:25:34.165Z,16.70
2018-08-17T06:28:02.344Z,16.80
2018-08-17T06:30:30.555Z,16.90
2018-08-17T06:32:59.003Z,16.90
2018-08-17T06:35:27.170Z,17.10
2018-08-17T06:37:55.352Z,17.20
2018-08-17T06:40:23.525Z,17.30
2018-08-17T06:42:51.749Z,17.40
2018-08-17T06:45:20.325Z,17.50
2018-08-17T06:47:48.487Z,17.80
2018-08-17T06:50:16.649Z,18.10
2018-08-17T06:52:44.854Z,18.40
2018-08-17T06:55:13.402Z,18.80
2018-08-17T06:57:41.594Z,19.20
2018-08-17T07:00:12.312Z,19.50
2018-08-17T07:02:40.783Z,19.90
2018-08-17T07:05:09.010Z,20.30
2018-08-17T07:07:37.184Z,20.60
2018-08-17T07:10:06.018Z,20.80
2018-08-17T07:12:34.193Z,21.00
2018-08-17T07:15:09.209Z,21.20
2018-08-17T07:17:37.456Z,21.30
2018-08-17T07:20:06.523Z,21.50
2018-08-17T07:22:34.698Z,21.80
2018-08-17T07:25:02.992Z,22.00
2018-08-17T07:27:31.162Z,22.40
2018-08-17T07:30:00.499Z,22.80
2018-08-17T07:32:29.487Z,23.10
2018-08-17T07:34:57.932Z,23.30
2018-08-17T07:37:26.287Z,23.60
2018-08-17T07:39:54.494Z,23.80
2018-08-17T07:42:23.092Z,24.00
2018-08-17T07:44:51.343Z,24.20
2018-08-17T07:47:20.844Z,24.50
2018-08-17T07:49:49.207Z,24.90
2018-08-17T07:52:17.606Z,25.50
2018-08-17T07:54:46.718Z,25.70
2018-08-17T07:57:14.916Z,25.70
2018-08-17T07:59:43.520Z,25.60
2018-08-17T08:02:11.720Z,25.50
2018-08-17T08:04:39.876Z,25.60
2018-08-17T08:07:08.067Z,25.80
2018-08-17T08:09:36.228Z,26.00
2018-08-17T08:12:04.613Z,26.30
2018-08-17T08:14:32.801Z,26.20
2018-08-17T08:17:01.033Z,26.10
2018-08-17T08:19:29.384Z,26.10
2018-08-17T08:21:57.562Z,26.00
2018-08-17T08:24:25.753Z,25.90
2018-08-17T08:26:53.975Z,26.00
2018-08-17T08:29:22.326Z,26.20
2018-08-17T08:31:50.620Z,26.40
2018-08-17T08:34:18.877Z,26.80
2018-08-17T08:36:47.059Z,27.20
2018-08-17T08:39:15.483Z,27.50
2018-08-17T08:41:44.418Z,27.90
2018-08-17T08:44:14.017Z,28.30
2018-08-17T08:46:42.745Z,28.60
2018-08-17T08:49:10.900Z,29.00
2018-08-17T08:51:39.203Z,29.20
2018-08-17T08:54:07.388Z,29.40
2018-08-17T08:56:35.823Z,29.70
2018-08-17T08:59:04.004Z,30.00
2018-08-17T09:01:32.191Z,30.20
2018-08-17T09:04:00.351Z,30.60
2018-08-17T09:06:28.520Z,31.00
2018-08-17T09:08:56.684Z,31.30
2018-08-17T09:11:25.155Z,31.60
2018-08-17T09:13:53.340Z,31.80
2018-08-17T09:16:21.743Z,32.00
2018-08-17T09:18:49.921Z,32.20
2018-08-17T09:21:18.314Z,32.30
2018-08-17T09:23:46.553Z,32.40
2018-08-17T09:26:14.854Z,32.50
2018-08-17T09:28:43.101Z,32.80
2018-08-17T09:31:11.259Z,33.00
2018-08-17T09:33:39.423Z,33.20
2018-08-17T09:36:07.797Z,33.50
2018-08-17T09:38:35.967Z,33.50
2018-08-17T09:41:11.021Z,32.90
2018-08-17T09:43:39.224Z,32.60
2018-08-17T09:46:07.421Z,32.70
2018-08-17T09:48:35.700Z,32.90
2018-08-17T09:51:03.912Z,33.30
2018-08-17T09:53:32.104Z,33.70
2018-08-17T09:56:00.329Z,34.00
2018-08-17T09:58:28.520Z,34.30
2018-08-17T10:01:02.143Z,34.60
2018-08-17T10:03:36.091Z,34.20
2018-08-17T10:06:09.681Z,34.40
2018-08-17T10:08:43.348Z,34.80
2018-08-17T10:11:11.516Z,35.10
2018-08-17T10:13:39.676Z,35.30
2018-08-17T10:16:08.132Z,35.70
2018-08-17T10:18:41.351Z,36.10
2018-08-17T10:21:09.728Z,36.40
2018-08-17T10:23:37.739Z,36.60
2018-08-17T10:26:05.920Z,36.80
2018-08-17T10:28:34.323Z,36.80
2018-08-17T10:31:02.516Z,36.80
2018-08-17T10:33:30.735Z,36.90
2018-08-17T10:35:58.928Z,37.30
2018-08-17T10:38:27.276Z,37.30
2018-08-17T10:40:55.507Z,37.00
2018-08-17T10:43:23.633Z,36.80
2018-08-17T10:45:51.856Z,36.60
2018-08-17T10:48:20.007Z,36.50
2018-08-17T10:50:48.312Z,36.10
2018-08-17T10:53:16.522Z,35.50
2018-08-17T10:55:47.557Z,34.90
2018-08-17T10:58:17.078Z,34.40
2018-08-17T11:00:45.292Z,33.80
2018-08-17T11:03:13.478Z,33.40
2018-08-17T11:05:42.044Z,33.10
2018-08-17T11:08:10.359Z,32.70
2018-08-17T11:10:38.546Z,32.70
2018-08-17T11:13:06.779Z,33.10
2018-08-17T11:15:34.959Z,33.70
2018-08-17T11:18:03.161Z,33.70
2018-08-17T11:20:31.338Z,33.60
2018-08-17T11:22:59.782Z,33.40
2018-08-17T11:25:28.104Z,33.10
2018-08-17T11:27:56.405Z,33.20
2018-08-17T11:30:24.600Z,33.40
2018-08-17T11:32:52.797Z,33.60
2018-08-17T11:35:21.028Z,33.80
2018-08-17T11:37:50.681Z,34.30
2018-08-17T11:40:18.934Z,34.60
2018-08-17T11:42:48.613Z,34.70
2018-08-17T11:45:18.930Z,34.80
2018-08-17T11:47:49.327Z,34.90
2018-08-17T11:50:19.561Z,35.00
2018-08-17T11:52:57.320Z,35.20
2018-08-17T11:55:26.985Z,35.00
2018-08-17T11:57:55.283Z,35.00
2018-08-17T12:00:23.806Z,35.00
2018-08-17T12:02:52.173Z,34.60
2018-08-17T12:05:20.757Z,34.40
2018-08-17T12:07:49.449Z,34.40
2018-08-17T12:10:17.797Z,34.30
2018-08-17T12:12:46.665Z,34.00
2018-08-17T12:15:15.437Z,33.90
2018-08-17T12:17:43.933Z,33.90
2018-08-17T12:20:12.304Z,34.10
2018-08-17T12:22:40.672Z,34.40
2018-08-17T12:25:09.864Z,34.40
2018-08-17T12:27:38.026Z,34.60
2018-08-17T12:30:07.753Z,34.60
2018-08-17T12:32:35.915Z,34.60
2018-08-17T12:35:04.259Z,34.40
2018-08-17T12:37:32.558Z,34.30
2018-08-17T12:40:00.788Z,33.90
2018-08-17T12:42:28.944Z,33.30
2018-08-17T12:45:02.263Z,32.60
2018-08-17T12:47:31.048Z,32.00
2018-08-17T12:49:59.248Z,31.60
2018-08-17T12:52:27.539Z,31.20
2018-08-17T12:54:55.659Z,30.90
2018-08-17T12:57:28.072Z,30.70
2018-08-17T12:59:56.299Z,30.60
2018-08-17T13:02:24.490Z,30.40
2018-08-17T13:04:52.683Z,30.30
2018-08-17T13:07:20.944Z,30.30
2018-08-17T13:09:53.184Z,30.30
2018-08-17T13:12:21.391Z,30.30
2018-08-17T13:14:51.447Z,30.30
2018-08-17T13:17:19.677Z,30.30
2018-08-17T13:19:47.842Z,30.30
2018-08-17T13:22:16.052Z,30.20
2018-08-17T13:24:44.444Z,30.20
2018-08-17T13:27:12.727Z,30.10
2018-08-17T13:29:40.966Z,30.00
2018-08-17T13:32:09.298Z,30.00
2018-08-17T13:34:37.783Z,30.00
2018-08-17T13:37:05.974Z,30.00
2018-08-17T13:39:34.287Z,29.80
2018-08-17T13:42:02.479Z,29.50
2018-08-17T13:44:30.659Z,29.20
2018-08-17T13:46:58.839Z,29.10
2018-08-17T13:49:27.048Z,28.90
2018-08-17T13:51:55.243Z,28.80
2018-08-17T13:54:23.433Z,28.70
2018-08-17T13:56:51.613Z,28.50
2018-08-17T13:59:19.775Z,28.20
2018-08-17T14:01:47.963Z,27.90
2018-08-17T14:04:16.136Z,27.50
2018-08-17T14:06:44.376Z,27.30
2018-08-17T14:09:12.645Z,27.00
2018-08-17T14:11:41.007Z,26.70
2018-08-17T14:14:09.327Z,26.40
2018-08-17T14:16:37.577Z,26.30
2018-08-17T14:19:05.992Z,26.20
2018-08-17T14:21:34.347Z,26.10
2018-08-17T14:24:02.608Z,26.00
2018-08-17T14:26:30.839Z,25.80
2018-08-17T14:28:59.219Z,25.90
2018-08-17T14:31:27.457Z,25.60
2018-08-17T14:33:55.714Z,25.40
2018-08-17T14:36:24.060Z,25.10
2018-08-17T14:38:52.268Z,25.00
2018-08-17T14:41:20.634Z,24.90
2018-08-17T14:43:48.827Z,24.90
2018-08-17T14:46:17.072Z,24.80
2018-08-17T14:48:45.238Z,24.80
2018-08-17T14:51:13.449Z,24.70
2018-08-17T14:53:41.748Z,24.70
2018-08-17T14:56:10.236Z,24.70
2018-08-17T14:58:38.407Z,24.70
2018-08-17T15:01:06.653Z,24.50
2018-08-17T15:03:34.855Z,24.30
2018-08-17T15:06:03.071Z,24.20
2018-08-17T15:08:31.323Z,23.80
2018-08-17T15:10:59.549Z,23.60
2018-08-17T15:13:27.907Z,23.20
2018-08-17T15:15:56.071Z,23.00
2018-08-17T15:18:24.279Z,22.80
2018-08-17T15:20:52.493Z,22.60
2018-08-17T15:23:20.739Z,22.50
2018-08-17T15:25:48.975Z,22.40
2018-08-17T15:28:17.412Z,22.40
2018-08-17T15:30:45.614Z,22.30
2018-08-17T15:33:13.840Z,22.30
2018-08-17T15:35:42.055Z,22.30
2018-08-17T15:38:10.258Z,22.40
2018-08-17T15:40:38.453Z,22.40
2018-08-17T15:43:10.983Z,22.50
2018-08-17T15:45:39.302Z,22.50
2018-08-17T15:48:07.515Z,22.60
2018-08-17T15:50:35.757Z,22.70
2018-08-17T15:53:03.995Z,22.80
2018-08-17T15:55:32.219Z,23.00
2018-08-17T15:58:00.554Z,23.20
2018-08-17T16:00:28.808Z,23.30
2018-08-17T16:02:56.957Z,23.30
2018-08-17T16:05:25.208Z,23.40
2018-08-17T16:07:53.443Z,23.40
2018-08-17T16:10:21.712Z,23.40
2018-08-17T16:12:50.002Z,23.40
2018-08-17T16:15:18.351Z,23.40
2018-08-17T16:17:46.584Z,23.30
2018-08-17T16:20:14.995Z,23.30
2018-08-17T16:22:43.808Z,23.20
2018-08-17T16:25:12.842Z,23.10
2018-08-17T16:27:41.972Z,23.00
2018-08-17T16:30:12.887Z,22.90
2018-08-17T16:32:41.438Z,22.90
2018-08-17T16:35:09.783Z,22.80
2018-08-17T16:37:43.566Z,22.80
2018-08-17T16:40:11.823Z,22.80
2018-08-17T16:42:40.171Z,22.70
2018-08-17T16:45:08.914Z,22.70
2018-08-17T16:47:37.152Z,22.70
2018-08-17T16:50:06.213Z,22.70
2018-08-17T16:52:34.421Z,22.60
2018-08-17T16:55:02.617Z,22.60
2018-08-17T16:57:30.807Z,22.60
2018-08-17T16:59:59.007Z,22.60
2018-08-17T17:02:27.171Z,22.60
2018-08-17T17:04:55.441Z,22.60
2018-08-17T17:07:29.159Z,22.60
2018-08-17T17:09:57.385Z,22.60
2018-08-17T17:12:25.614Z,22.60
2018-08-17T17:14:53.894Z,22.60
2018-08-17T17:17:22.187Z,22.50
2018-08-17T17:19:50.378Z,22.50
2018-08-17T17:22:19.118Z,22.40
2018-08-17T17:24:47.298Z,22.30
2018-08-17T17:27:18.865Z,22.30
2018-08-17T17:29:47.264Z,22.20
2018-08-17T17:32:15.455Z,22.20
2018-08-17T17:34:43.924Z,22.20
2018-08-17T17:37:12.271Z,22.10
2018-08-17T17:39:40.545Z,22.10
2018-08-17T17:42:08.772Z,22.10
2018-08-17T17:44:43.158Z,22.00
2018-08-17T17:47:11.387Z,21.90
2018-08-17T17:49:39.582Z,21.90
2018-08-17T17:52:07.771Z,21.80
2018-08-17T17:54:36.001Z,21.70
2018-08-17T17:57:08.646Z,21.60
2018-08-17T17:59:45.011Z,21.50
2018-08-17T18:02:13.207Z,21.40
2018-08-17T18:04:41.472Z,21.30
2018-08-17T18:07:09.699Z,21.20
2018-08-17T18:09:38.036Z,21.20
2018-08-17T18:12:06.259Z,21.10
2018-08-17T18:14:34.653Z,21.00
2018-08-17T18:17:03.006Z,21.00
2018-08-17T18:19:31.340Z,20.90
2018-08-17T18:21:59.513Z,20.90
2018-08-17T18:24:27.758Z,20.90
2018-08-17T18:26:56.001Z,20.80
2018-08-17T18:29:24.187Z,20.80
2018-08-17T18:31:52.648Z,20.70
2018-08-17T18:34:21.571Z,20.70
2018-08-17T18:36:49.776Z,20.60
2018-08-17T18:39:18.020Z,20.60
2018-08-17T18:41:46.204Z,20.50
2018-08-17T18:44:14.492Z,20.40
2018-08-17T18:46:46.642Z,20.40
2018-08-17T18:49:14.768Z,20.30
2018-08-17T18:51:43.200Z,20.30
2018-08-17T18:54:11.364Z,20.30
2018-08-17T18:56:39.573Z,20.30
2018-08-17T18:59:07.924Z,20.20
2018-08-17T19:01:36.115Z,20.20
2018-08-17T19:04:04.556Z,20.20
2018-08-17T19:06:32.779Z,20.20
2018-08-17T19:09:00.981Z,20.20
2018-08-17T19:11:29.281Z,20.30
2018-08-17T19:13:57.480Z,20.30
2018-08-17T19:16:25.639Z,20.20
2018-08-17T19:18:53.838Z,20.20
2018-08-17T19:21:22.062Z,20.20
2018-08-17T19:23:50.399Z,20.20
2018-08-17T19:26:18.686Z,20.20
2018-08-17T19:28:51.262Z,20.20
2018-08-17T19:31:19.659Z,20.30
2018-08-17T19:33:48.260Z,20.30
2018-08-17T19:36:16.492Z,20.30
2018-08-17T19:38:44.830Z,20.40
2018-08-17T19:41:13.104Z,20.40
2018-08-17T19:43:41.303Z,20.40
2018-08-17T19:46:09.923Z,20.40
2018-08-17T19:48:38.114Z,20.40
2018-08-17T19:51:11.860Z,20.40
2018-08-17T19:53:40.052Z,20.40
2018-08-17T19:56:08.431Z,20.50
2018-08-17T19:58:36.877Z,20.50
2018-08-17T20:01:05.163Z,20.50
2018-08-17T20:03:33.383Z,20.60
2018-08-17T20:06:01.716Z,20.70
2018-08-17T20:08:29.986Z,20.80
2018-08-17T20:10:58.249Z,20.80
2018-08-17T20:13:26.504Z,20.90
2018-08-17T20:15:54.863Z,20.90
2018-08-17T20:18:23.098Z,20.90
2018-08-17T20:20:51.304Z,20.90
2018-08-17T20:23:19.624Z,20.80
2018-08-17T20:25:47.937Z,20.70
2018-08-17T20:28:16.092Z,20.60
2018-08-17T20:30:44.265Z,20.60
2018-08-17T20:33:29.291Z,20.50
2018-08-17T20:35:57.828Z,20.40
2018-08-17T20:38:26.037Z,20.40
2018-08-17T20:40:58.562Z,20.30
2018-08-17T20:43:27.252Z,20.20
2018-08-17T20:45:55.431Z,20.30
2018-08-17T20:48:23.681Z,20.20
2018-08-17T20:50:51.928Z,20.20
2018-08-17T20:53:20.583Z,20.20
2018-08-17T20:55:48.922Z,20.20
2018-08-17T20:58:17.439Z,20.20
2018-08-17T21:00:45.629Z,20.20
2018-08-17T21:03:13.853Z,20.20
2018-08-17T21:05:42.051Z,20.20
2018-08-17T21:08:10.229Z,20.20
2018-08-17T21:10:38.446Z,20.20
2018-08-17T21:13:06.688Z,20.20
2018-08-17T21:15:34.887Z,20.10
2018-08-17T21:18:03.051Z,20.10
2018-08-17T21:20:31.272Z,20.10
2018-08-17T21:22:59.439Z,20.00
2018-08-17T21:25:27.702Z,20.00
2018-08-17T21:27:55.927Z,20.00
2018-08-17T21:30:24.121Z,20.00
2018-08-17T21:32:52.280Z,19.90
2018-08-17T21:35:20.467Z,19.90
2018-08-17T21:37:48.695Z,19.90
2018-08-17T21:40:27.991Z,19.90
2018-08-17T21:42:56.984Z,19.80
2018-08-17T21:45:25.219Z,19.80
2018-08-17T21:47:53.439Z,19.70
2018-08-17T21:50:21.662Z,19.70
2018-08-17T21:52:49.861Z,19.60
2018-08-17T21:55:18.096Z,19.60
2018-08-17T21:57:46.298Z,19.50
2018-08-17T22:00:22.175Z,19.50
2018-08-17T22:02:50.399Z,19.50
2018-08-17T22:05:24.151Z,19.50
2018-08-17T22:07:52.329Z,19.60
2018-08-17T22:10:20.537Z,19.60
2018-08-17T22:12:48.763Z,19.70
2018-08-17T22:15:16.974Z,19.60
2018-08-17T22:17:45.213Z,19.60
2018-08-17T22:20:13.416Z,19.50
2018-08-17T22:22:41.912Z,19.50
2018-08-17T22:25:16.307Z,19.50
2018-08-17T22:27:44.527Z,19.40
2018-08-17T22:30:18.331Z,19.40
2018-08-17T22:32:46.476Z,19.30
2018-08-17T22:35:14.734Z,19.20
2018-08-17T22:37:42.901Z,19.20
2018-08-17T22:40:11.119Z,19.00
2018-08-17T22:42:39.564Z,19.00
2018-08-17T22:45:07.964Z,18.90
2018-08-17T22:47:36.474Z,18.80
2018-08-17T22:50:05.021Z,18.80
2018-08-17T22:52:34.136Z,18.80
2018-08-17T22:55:03.646Z,18.70
2018-08-17T22:57:32.294Z,18.60
2018-08-17T23:00:14.124Z,18.50
2018-08-17T23:02:43.491Z,18.50
2018-08-17T23:05:13.427Z,18.40
2018-08-17T23:07:41.652Z,18.40
2018-08-17T23:10:16.423Z,18.40
2018-08-17T23:12:45.803Z,18.40
2018-08-17T23:15:14.189Z,18.40
2018-08-17T23:17:45.732Z,18.40
2018-08-17T23:20:14.027Z,18.30
2018-08-17T23:22:50.508Z,18.30
2018-08-17T23:25:18.717Z,18.30
2018-08-17T23:27:47.645Z,18.30
2018-08-17T23:30:15.847Z,18.20
2018-08-17T23:32:44.509Z,18.20
2018-08-17T23:35:12.730Z,18.20
2018-08-17T23:37:40.938Z,18.20
2018-08-17T23:40:09.735Z,18.10
2018-08-17T23:42:44.508Z,18.10
2018-08-17T23:45:14.459Z,18.10
2018-08-17T23:47:42.715Z,18.10
2018-08-17T23:50:12.157Z,18.10
2018-08-17T23:52:40.395Z,18.10
2018-08-17T23:55:12.321Z,18.10
2018-08-17T23:57:40.548Z,18.10
